sensor_id;sensor_type;location;lat;lon;timestamp;pressure;altitude;pressure_sealevel;temperature;humidity
56737;BME280;42618;51.226;4.910;2023-05-22T00:01:49;49613.38;;;-146.94;87.16
56737;BME280;42618;51.226;4.910;2023-05-22T00:04:17;49635.31;;;-146.94;88.25
56737;BME280;42618;51.226;4.910;2023-05-22T00:06:47;49625.34;;;-146.94;87.50
56737;BME280;42618;51.226;4.910;2023-05-22T00:09:14;49599.41;;;-146.94;87.64
56737;BME280;42618;51.226;4.910;2023-05-22T00:11:42;49633.31;;;-146.94;88.49
56737;BME280;42618;51.226;4.910;2023-05-22T00:14:08;49663.22;;;-146.94;89.43
56737;BME280;42618;51.226;4.910;2023-05-22T00:16:35;49669.19;;;-146.94;89.82
56737;BME280;42618;51.226;4.910;2023-05-22T00:19:02;49647.25;;;-146.94;90.13
56737;BME280;42618;51.226;4.910;2023-05-22T00:21:29;49653.25;;;-146.94;90.65
56737;BME280;42618;51.226;4.910;2023-05-22T00:24:00;49675.19;;;-146.94;90.82
56737;BME280;42618;51.226;4.910;2023-05-22T00:26:27;49635.31;;;-146.94;90.82
56737;BME280;42618;51.226;4.910;2023-05-22T00:28:54;49667.19;;;-146.94;91.09
56737;BME280;42618;51.226;4.910;2023-05-22T00:31:21;49627.31;;;-146.94;91.09
56737;BME280;42618;51.226;4.910;2023-05-22T00:33:48;49635.31;;;-146.94;91.91
56737;BME280;42618;51.226;4.910;2023-05-22T00:36:15;49639.28;;;-146.94;92.21
56737;BME280;42618;51.226;4.910;2023-05-22T00:38:44;49659.22;;;-146.94;91.93
56737;BME280;42618;51.226;4.910;2023-05-22T00:41:10;49647.25;;;-146.94;91.98
56737;BME280;42618;51.226;4.910;2023-05-22T00:43:38;49649.25;;;-146.94;91.58
56737;BME280;42618;51.226;4.910;2023-05-22T00:46:05;49663.22;;;-146.94;92.17
56737;BME280;42618;51.226;4.910;2023-05-22T00:48:33;49641.28;;;-146.94;93.22
56737;BME280;42618;51.226;4.910;2023-05-22T00:51:00;49635.31;;;-146.94;92.74
56737;BME280;42618;51.226;4.910;2023-05-22T00:53:28;49673.19;;;-146.94;92.39
56737;BME280;42618;51.226;4.910;2023-05-22T00:55:57;49637.28;;;-146.94;92.63
56737;BME280;42618;51.226;4.910;2023-05-22T00:58:25;49661.22;;;-146.94;92.95
56737;BME280;42618;51.226;4.910;2023-05-22T01:00:53;49627.31;;;-146.94;93.15
56737;BME280;42618;51.226;4.910;2023-05-22T01:03:21;49599.41;;;-146.94;94.09
56737;BME280;42618;51.226;4.910;2023-05-22T01:05:53;49677.16;;;-146.94;93.96
56737;BME280;42618;51.226;4.910;2023-05-22T01:08:20;49655.25;;;-146.94;94.18
56737;BME280;42618;51.226;4.910;2023-05-22T01:10:51;49647.25;;;-146.94;94.80
56737;BME280;42618;51.226;4.910;2023-05-22T01:13:35;49667.19;;;-146.94;95.44
56737;BME280;42618;51.226;4.910;2023-05-22T01:16:20;49667.19;;;-146.94;95.02
56737;BME280;42618;51.226;4.910;2023-05-22T01:32:25;49657.22;;;-146.94;98.23
56737;BME280;42618;51.226;4.910;2023-05-22T01:34:57;49651.25;;;-146.94;98.32
56737;BME280;42618;51.226;4.910;2023-05-22T01:37:25;49657.22;;;-146.94;98.08
56737;BME280;42618;51.226;4.910;2023-05-22T01:39:53;49661.22;;;-146.94;98.51
56737;BME280;42618;51.226;4.910;2023-05-22T01:42:21;49647.25;;;-146.94;98.08
56737;BME280;42618;51.226;4.910;2023-05-22T01:44:48;49669.19;;;-146.94;98.24
56737;BME280;42618;51.226;4.910;2023-05-22T01:47:15;49675.19;;;-146.94;98.87
56737;BME280;42618;51.226;4.910;2023-05-22T01:49:43;49681.16;;;-146.94;98.52
56737;BME280;42618;51.226;4.910;2023-05-22T01:52:37;49641.28;;;-146.94;98.82
56737;BME280;42618;51.226;4.910;2023-05-22T01:55:10;49679.16;;;-146.94;98.82
56737;BME280;42618;51.226;4.910;2023-05-22T01:57:54;49663.22;;;-146.94;98.99
56737;BME280;42618;51.226;4.910;2023-05-22T02:00:24;49675.19;;;-146.94;98.97
56737;BME280;42618;51.226;4.910;2023-05-22T02:03:05;49631.31;;;-146.94;99.23
56737;BME280;42618;51.226;4.910;2023-05-22T02:05:34;49663.22;;;-146.94;99.46
56737;BME280;42618;51.226;4.910;2023-05-22T02:08:04;49673.19;;;-146.94;99.32
56737;BME280;42618;51.226;4.910;2023-05-22T02:10:32;49641.28;;;-146.94;99.44
56737;BME280;42618;51.226;4.910;2023-05-22T02:13:00;49671.19;;;-146.94;99.40
56737;BME280;42618;51.226;4.910;2023-05-22T02:15:27;49683.16;;;-146.94;100.00
56737;BME280;42618;51.226;4.910;2023-05-22T02:17:54;49643.28;;;-146.94;100.00
56737;BME280;42618;51.226;4.910;2023-05-22T02:20:24;49687.13;;;-146.94;100.00
56737;BME280;42618;51.226;4.910;2023-05-22T02:22:51;49689.13;;;-146.94;100.00
56737;BME280;42618;51.226;4.910;2023-05-22T02:25:18;49675.19;;;-146.94;100.00
56737;BME280;42618;51.226;4.910;2023-05-22T02:27:46;49675.19;;;-146.94;100.00
56737;BME280;42618;51.226;4.910;2023-05-22T02:30:13;49705.06;;;-146.94;100.00
56737;BME280;42618;51.226;4.910;2023-05-22T02:32:42;49659.22;;;-146.94;100.00
56737;BME280;42618;51.226;4.910;2023-05-22T02:35:09;49633.31;;;-146.94;100.00
56737;BME280;42618;51.226;4.910;2023-05-22T02:37:36;49653.25;;;-146.94;100.00
56737;BME280;42618;51.226;4.910;2023-05-22T02:40:04;49709.06;;;-146.94;100.00
56737;BME280;42618;51.226;4.910;2023-05-22T02:42:34;49661.22;;;-146.94;100.00
56737;BME280;42618;51.226;4.910;2023-05-22T02:45:01;49669.19;;;-146.94;100.00
56737;BME280;42618;51.226;4.910;2023-05-22T02:47:28;49663.22;;;-146.94;100.00
56737;BME280;42618;51.226;4.910;2023-05-22T02:49:55;49689.13;;;-146.94;100.00
56737;BME280;42618;51.226;4.910;2023-05-22T02:52:23;49691.13;;;-146.94;100.00
56737;BME280;42618;51.226;4.910;2023-05-22T02:54:50;49681.16;;;-146.94;100.00
56737;BME280;42618;51.226;4.910;2023-05-22T02:57:18;49675.19;;;-146.94;100.00
56737;BME280;42618;51.226;4.910;2023-05-22T02:59:45;49699.09;;;-146.94;100.00
56737;BME280;42618;51.226;4.910;2023-05-22T03:02:12;49693.13;;;-146.94;100.00
56737;BME280;42618;51.226;4.910;2023-05-22T03:04:40;49697.09;;;-146.94;100.00
56737;BME280;42618;51.226;4.910;2023-05-22T03:07:07;49711.06;;;-146.94;100.00
56737;BME280;42618;51.226;4.910;2023-05-22T03:09:34;49623.34;;;-146.94;100.00
56737;BME280;42618;51.226;4.910;2023-05-22T03:12:01;49701.09;;;-146.94;100.00
56737;BME280;42618;51.226;4.910;2023-05-22T03:14:28;49677.16;;;-146.94;100.00
56737;BME280;42618;51.226;4.910;2023-05-22T03:16:56;49647.25;;;-146.94;100.00
56737;BME280;42618;51.226;4.910;2023-05-22T03:19:24;49673.19;;;-146.94;100.00
56737;BME280;42618;51.226;4.910;2023-05-22T03:21:52;49679.16;;;-146.94;100.00
56737;BME280;42618;51.226;4.910;2023-05-22T03:24:20;49669.19;;;-146.94;100.00
56737;BME280;42618;51.226;4.910;2023-05-22T03:26:47;49683.16;;;-146.94;100.00
56737;BME280;42618;51.226;4.910;2023-05-22T03:29:20;49655.25;;;-146.94;100.00
56737;BME280;42618;51.226;4.910;2023-05-22T03:31:47;49711.06;;;-146.94;100.00
56737;BME280;42618;51.226;4.910;2023-05-22T03:34:14;49683.16;;;-146.94;100.00
56737;BME280;42618;51.226;4.910;2023-05-22T03:36:44;49681.16;;;-146.94;100.00
56737;BME280;42618;51.226;4.910;2023-05-22T03:39:14;49691.13;;;-146.94;100.00
56737;BME280;42618;51.226;4.910;2023-05-22T03:41:49;49635.31;;;-146.94;100.00
56737;BME280;42618;51.226;4.910;2023-05-22T03:44:16;49675.19;;;-146.94;100.00
56737;BME280;42618;51.226;4.910;2023-05-22T03:46:43;49703.09;;;-146.94;100.00
56737;BME280;42618;51.226;4.910;2023-05-22T03:49:10;49673.19;;;-146.94;100.00
56737;BME280;42618;51.226;4.910;2023-05-22T03:51:36;49675.19;;;-146.94;100.00
56737;BME280;42618;51.226;4.910;2023-05-22T03:54:03;49665.22;;;-146.94;100.00
56737;BME280;42618;51.226;4.910;2023-05-22T03:56:30;49705.06;;;-146.94;100.00
56737;BME280;42618;51.226;4.910;2023-05-22T03:58:57;49689.13;;;-146.94;100.00
56737;BME280;42618;51.226;4.910;2023-05-22T04:01:24;49689.13;;;-146.94;100.00
56737;BME280;42618;51.226;4.910;2023-05-22T04:03:51;49667.19;;;-146.94;100.00
56737;BME280;42618;51.226;4.910;2023-05-22T04:06:17;49693.13;;;-146.94;100.00
56737;BME280;42618;51.226;4.910;2023-05-22T04:08:48;49667.19;;;-146.94;100.00
56737;BME280;42618;51.226;4.910;2023-05-22T04:11:14;49703.09;;;-146.94;100.00
56737;BME280;42618;51.226;4.910;2023-05-22T04:13:42;49709.06;;;-146.94;100.00
56737;BME280;42618;51.226;4.910;2023-05-22T04:16:09;49653.25;;;-146.94;100.00
56737;BME280;42618;51.226;4.910;2023-05-22T04:18:36;49721.03;;;-146.94;100.00
56737;BME280;42618;51.226;4.910;2023-05-22T04:21:03;49705.06;;;-146.94;100.00
56737;BME280;42618;51.226;4.910;2023-05-22T04:23:33;49727.00;;;-146.94;100.00
56737;BME280;42618;51.226;4.910;2023-05-22T04:26:03;49691.13;;;-146.94;100.00
56737;BME280;42618;51.226;4.910;2023-05-22T04:28:29;49677.16;;;-146.94;100.00
56737;BME280;42618;51.226;4.910;2023-05-22T04:30:56;49740.97;;;-146.94;100.00
56737;BME280;42618;51.226;4.910;2023-05-22T04:33:23;49683.16;;;-146.94;100.00
56737;BME280;42618;51.226;4.910;2023-05-22T04:35:56;49707.06;;;-146.94;100.00
56737;BME280;42618;51.226;4.910;2023-05-22T04:38:22;49669.19;;;-146.94;100.00
56737;BME280;42618;51.226;4.910;2023-05-22T04:40:51;49687.13;;;-146.94;100.00
56737;BME280;42618;51.226;4.910;2023-05-22T04:43:18;49675.19;;;-146.94;100.00
56737;BME280;42618;51.226;4.910;2023-05-22T04:45:45;49711.06;;;-146.94;100.00
56737;BME280;42618;51.226;4.910;2023-05-22T04:48:11;49683.16;;;-146.94;100.00
56737;BME280;42618;51.226;4.910;2023-05-22T04:50:39;49683.16;;;-146.94;100.00
56737;BME280;42618;51.226;4.910;2023-05-22T04:53:06;49709.06;;;-146.94;100.00
56737;BME280;42618;51.226;4.910;2023-05-22T04:55:33;49683.16;;;-146.94;100.00
56737;BME280;42618;51.226;4.910;2023-05-22T04:58:00;49703.09;;;-146.94;100.00
56737;BME280;42618;51.226;4.910;2023-05-22T05:00:27;49711.06;;;-146.94;100.00
56737;BME280;42618;51.226;4.910;2023-05-22T05:02:55;49675.19;;;-146.94;100.00
56737;BME280;42618;51.226;4.910;2023-05-22T05:05:23;49723.03;;;-146.94;100.00
56737;BME280;42618;51.226;4.910;2023-05-22T05:07:51;49691.13;;;-146.94;100.00
56737;BME280;42618;51.226;4.910;2023-05-22T05:10:18;49691.13;;;-146.94;100.00
56737;BME280;42618;51.226;4.910;2023-05-22T05:12:45;49691.13;;;-146.94;100.00
56737;BME280;42618;51.226;4.910;2023-05-22T05:15:12;49655.25;;;-146.94;100.00
56737;BME280;42618;51.226;4.910;2023-05-22T05:17:39;49697.09;;;-146.94;100.00
56737;BME280;42618;51.226;4.910;2023-05-22T05:20:07;49681.16;;;-146.94;100.00
56737;BME280;42618;51.226;4.910;2023-05-22T05:22:34;49697.09;;;-146.94;100.00
56737;BME280;42618;51.226;4.910;2023-05-22T05:25:03;49685.13;;;-146.94;100.00
56737;BME280;42618;51.226;4.910;2023-05-22T05:27:31;49693.13;;;-146.94;100.00
56737;BME280;42618;51.226;4.910;2023-05-22T05:29:58;49703.09;;;-146.94;100.00
56737;BME280;42618;51.226;4.910;2023-05-22T05:32:37;49705.06;;;-146.94;100.00
56737;BME280;42618;51.226;4.910;2023-05-22T05:35:24;49695.09;;;-146.94;100.00
56737;BME280;42618;51.226;4.910;2023-05-22T05:38:04;49679.16;;;-146.94;100.00
56737;BME280;42618;51.226;4.910;2023-05-22T05:40:32;49711.06;;;-146.94;100.00
56737;BME280;42618;51.226;4.910;2023-05-22T05:42:59;49677.16;;;-146.94;100.00
56737;BME280;42618;51.226;4.910;2023-05-22T05:45:27;49653.25;;;-146.94;100.00
56737;BME280;42618;51.226;4.910;2023-05-22T05:47:54;49679.16;;;-146.94;100.00
56737;BME280;42618;51.226;4.910;2023-05-22T05:50:22;49679.16;;;-146.94;100.00
56737;BME280;42618;51.226;4.910;2023-05-22T05:52:49;49687.13;;;-146.94;100.00
56737;BME280;42618;51.226;4.910;2023-05-22T05:55:17;49693.13;;;-146.94;100.00
56737;BME280;42618;51.226;4.910;2023-05-22T05:57:45;49693.13;;;-146.94;100.00
56737;BME280;42618;51.226;4.910;2023-05-22T06:00:18;49699.09;;;-146.94;100.00
56737;BME280;42618;51.226;4.910;2023-05-22T06:02:46;49711.06;;;-146.94;100.00
56737;BME280;42618;51.226;4.910;2023-05-22T06:05:48;49705.06;;;-146.94;100.00
56737;BME280;42618;51.226;4.910;2023-05-22T06:08:25;49675.19;;;-146.94;100.00
56737;BME280;42618;51.226;4.910;2023-05-22T06:10:53;49679.16;;;-146.94;100.00
56737;BME280;42618;51.226;4.910;2023-05-22T06:13:33;49715.03;;;-146.94;100.00
56737;BME280;42618;51.226;4.910;2023-05-22T06:16:00;49697.09;;;-146.94;100.00
56737;BME280;42618;51.226;4.910;2023-05-22T06:18:33;49665.22;;;-146.94;100.00
56737;BME280;42618;51.226;4.910;2023-05-22T06:21:00;49701.09;;;-146.94;100.00
56737;BME280;42618;51.226;4.910;2023-05-22T06:23:26;49707.06;;;-146.94;100.00
56737;BME280;42618;51.226;4.910;2023-05-22T06:25:54;49665.22;;;-146.94;100.00
56737;BME280;42618;51.226;4.910;2023-05-22T06:28:23;49736.97;;;-146.94;100.00
56737;BME280;42618;51.226;4.910;2023-05-22T06:30:51;49687.13;;;-146.94;100.00
56737;BME280;42618;51.226;4.910;2023-05-22T06:33:20;49687.13;;;-146.94;100.00
56737;BME280;42618;51.226;4.910;2023-05-22T06:35:47;49715.03;;;-146.94;100.00
56737;BME280;42618;51.226;4.910;2023-05-22T06:38:15;49687.13;;;-146.94;100.00
56737;BME280;42618;51.226;4.910;2023-05-22T06:40:42;49681.16;;;-146.94;100.00
56737;BME280;42618;51.226;4.910;2023-05-22T06:43:17;49675.19;;;-146.94;100.00
56737;BME280;42618;51.226;4.910;2023-05-22T06:45:56;49719.03;;;-146.94;100.00
56737;BME280;42618;51.226;4.910;2023-05-22T06:48:41;49673.19;;;-146.94;100.00
56737;BME280;42618;51.226;4.910;2023-05-22T06:51:14;49711.06;;;-146.94;100.00
56737;BME280;42618;51.226;4.910;2023-05-22T06:53:45;49715.03;;;-146.94;100.00
56737;BME280;42618;51.226;4.910;2023-05-22T06:56:17;49691.13;;;-146.94;100.00
56737;BME280;42618;51.226;4.910;2023-05-22T06:58:52;49665.22;;;-146.94;100.00
56737;BME280;42618;51.226;4.910;2023-05-22T07:01:22;49691.13;;;-146.94;100.00
56737;BME280;42618;51.226;4.910;2023-05-22T07:04:01;49683.16;;;-146.94;100.00
56737;BME280;42618;51.226;4.910;2023-05-22T07:06:34;49675.19;;;-146.94;100.00
56737;BME280;42618;51.226;4.910;2023-05-22T07:09:05;49681.16;;;-146.94;100.00
56737;BME280;42618;51.226;4.910;2023-05-22T07:11:32;49707.06;;;-146.94;100.00
56737;BME280;42618;51.226;4.910;2023-05-22T07:14:00;49671.19;;;-146.94;100.00
56737;BME280;42618;51.226;4.910;2023-05-22T07:16:27;49679.16;;;-146.94;100.00
56737;BME280;42618;51.226;4.910;2023-05-22T07:18:56;49655.25;;;-146.94;100.00
56737;BME280;42618;51.226;4.910;2023-05-22T07:21:23;49681.16;;;-146.94;100.00
56737;BME280;42618;51.226;4.910;2023-05-22T07:23:51;49685.13;;;-146.94;100.00
56737;BME280;42618;51.226;4.910;2023-05-22T07:26:19;49687.13;;;-146.94;100.00
56737;BME280;42618;51.226;4.910;2023-05-22T07:28:57;49687.13;;;-146.94;100.00
56737;BME280;42618;51.226;4.910;2023-05-22T07:31:24;49667.19;;;-146.94;100.00
56737;BME280;42618;51.226;4.910;2023-05-22T07:33:53;49673.19;;;-146.94;100.00
56737;BME280;42618;51.226;4.910;2023-05-22T07:36:20;49687.13;;;-146.94;100.00
56737;BME280;42618;51.226;4.910;2023-05-22T07:38:46;49671.19;;;-146.94;100.00
56737;BME280;42618;51.226;4.910;2023-05-22T07:41:13;49707.06;;;-146.94;100.00
56737;BME280;42618;51.226;4.910;2023-05-22T07:43:40;49683.16;;;-146.94;100.00
56737;BME280;42618;51.226;4.910;2023-05-22T07:46:09;49695.09;;;-146.94;100.00
56737;BME280;42618;51.226;4.910;2023-05-22T07:48:48;49705.06;;;-146.94;100.00
56737;BME280;42618;51.226;4.910;2023-05-22T07:51:15;49687.13;;;-146.94;100.00
56737;BME280;42618;51.226;4.910;2023-05-22T07:53:45;49681.16;;;-146.94;100.00
56737;BME280;42618;51.226;4.910;2023-05-22T07:56:12;49689.13;;;-146.94;100.00
56737;BME280;42618;51.226;4.910;2023-05-22T07:58:40;49679.16;;;-146.94;100.00
56737;BME280;42618;51.226;4.910;2023-05-22T08:01:07;49679.16;;;-146.94;100.00
56737;BME280;42618;51.226;4.910;2023-05-22T08:03:35;49661.22;;;-146.94;100.00
56737;BME280;42618;51.226;4.910;2023-05-22T08:06:02;49677.16;;;-146.94;100.00
56737;BME280;42618;51.226;4.910;2023-05-22T08:08:29;49697.09;;;-146.94;100.00
56737;BME280;42618;51.226;4.910;2023-05-22T08:10:57;49667.19;;;-146.94;100.00
56737;BME280;42618;51.226;4.910;2023-05-22T08:13:27;49687.13;;;-146.94;100.00
56737;BME280;42618;51.226;4.910;2023-05-22T08:15:54;49675.19;;;-146.94;99.71
56737;BME280;42618;51.226;4.910;2023-05-22T08:18:27;49671.19;;;-146.94;98.68
56737;BME280;42618;51.226;4.910;2023-05-22T08:20:55;49679.16;;;-146.94;98.58
56737;BME280;42618;51.226;4.910;2023-05-22T08:23:22;49655.25;;;-146.94;98.48
56737;BME280;42618;51.226;4.910;2023-05-22T08:25:48;49701.09;;;-146.94;97.96
56737;BME280;42618;51.226;4.910;2023-05-22T08:28:16;49679.16;;;-146.94;98.18
56737;BME280;42618;51.226;4.910;2023-05-22T08:30:42;49705.06;;;-146.94;98.03
56737;BME280;42618;51.226;4.910;2023-05-22T08:33:09;49675.19;;;-146.94;98.38
56737;BME280;42618;51.226;4.910;2023-05-22T08:35:38;49681.16;;;-146.94;98.91
56737;BME280;42618;51.226;4.910;2023-05-22T08:38:04;49738.97;;;-146.94;99.74
56737;BME280;42618;51.226;4.910;2023-05-22T08:40:35;49683.16;;;-146.94;98.80
56737;BME280;42618;51.226;4.910;2023-05-22T08:43:08;49655.25;;;-146.94;98.16
56737;BME280;42618;51.226;4.910;2023-05-22T08:45:34;49707.06;;;-146.94;97.42
56737;BME280;42618;51.226;4.910;2023-05-22T08:48:03;49711.06;;;-146.94;97.06
56737;BME280;42618;51.226;4.910;2023-05-22T08:50:40;49707.06;;;-146.94;97.67
56737;BME280;42618;51.226;4.910;2023-05-22T08:53:10;49663.22;;;-146.94;97.95
56737;BME280;42618;51.226;4.910;2023-05-22T08:55:38;49685.13;;;-146.94;98.21
56737;BME280;42618;51.226;4.910;2023-05-22T08:58:05;49683.16;;;-146.94;97.73
56737;BME280;42618;51.226;4.910;2023-05-22T09:00:32;49669.19;;;-146.94;98.55
56737;BME280;42618;51.226;4.910;2023-05-22T09:02:59;49677.16;;;-146.94;99.12
56737;BME280;42618;51.226;4.910;2023-05-22T09:05:26;49691.13;;;-146.94;98.65
56737;BME280;42618;51.226;4.910;2023-05-22T09:07:54;49685.13;;;-146.94;98.47
56737;BME280;42618;51.226;4.910;2023-05-22T09:10:28;49707.06;;;-146.94;98.04
56737;BME280;42618;51.226;4.910;2023-05-22T09:13:06;49705.06;;;-146.94;97.43
56737;BME280;42618;51.226;4.910;2023-05-22T09:15:35;49671.19;;;-146.94;97.83
56737;BME280;42618;51.226;4.910;2023-05-22T09:18:03;49669.19;;;-146.94;97.15
56737;BME280;42618;51.226;4.910;2023-05-22T09:20:34;49675.19;;;-146.94;97.61
56737;BME280;42618;51.226;4.910;2023-05-22T09:23:01;49669.19;;;-146.94;97.20
56737;BME280;42618;51.226;4.910;2023-05-22T09:25:35;49679.16;;;-146.94;95.19
56737;BME280;42618;51.226;4.910;2023-05-22T09:28:03;49661.22;;;-146.94;93.60
56737;BME280;42618;51.226;4.910;2023-05-22T09:30:33;49691.13;;;-146.94;91.56
56737;BME280;42618;51.226;4.910;2023-05-22T09:33:00;49617.38;;;-146.94;90.29
56737;BME280;42618;51.226;4.910;2023-05-22T09:35:26;49669.19;;;-146.94;89.49
56737;BME280;42618;51.226;4.910;2023-05-22T09:37:54;49627.31;;;-146.94;88.35
56737;BME280;42618;51.226;4.910;2023-05-22T09:40:20;49671.19;;;-146.94;88.74
56737;BME280;42618;51.226;4.910;2023-05-22T09:42:47;49649.25;;;-146.94;88.03
56737;BME280;42618;51.226;4.910;2023-05-22T09:45:18;49663.22;;;-146.94;87.95
56737;BME280;42618;51.226;4.910;2023-05-22T09:47:49;49655.25;;;-146.94;86.62
56737;BME280;42618;51.226;4.910;2023-05-22T09:50:16;49641.28;;;-146.94;86.16
56737;BME280;42618;51.226;4.910;2023-05-22T09:52:44;49635.31;;;-146.94;83.38
56737;BME280;42618;51.226;4.910;2023-05-22T09:55:13;49655.25;;;-146.94;83.96
56737;BME280;42618;51.226;4.910;2023-05-22T09:57:43;49631.31;;;-146.94;85.32
56737;BME280;42618;51.226;4.910;2023-05-22T10:00:12;49643.28;;;-146.94;83.11
56737;BME280;42618;51.226;4.910;2023-05-22T10:02:43;49603.41;;;-146.94;81.28
56737;BME280;42618;51.226;4.910;2023-05-22T10:05:12;49635.31;;;-146.94;79.53
56737;BME280;42618;51.226;4.910;2023-05-22T10:07:53;49627.31;;;-146.94;82.25
56737;BME280;42618;51.226;4.910;2023-05-22T10:10:23;49665.22;;;-146.94;83.47
56737;BME280;42618;51.226;4.910;2023-05-22T10:15:21;49637.28;;;-146.94;82.81
56737;BME280;42618;51.226;4.910;2023-05-22T10:17:48;49651.25;;;-146.94;83.47
56737;BME280;42618;51.226;4.910;2023-05-22T10:20:15;49651.25;;;-146.94;82.04
56737;BME280;42618;51.226;4.910;2023-05-22T10:22:42;49629.31;;;-146.94;79.16
56737;BME280;42618;51.226;4.910;2023-05-22T10:25:09;49615.38;;;-146.94;79.81
56737;BME280;42618;51.226;4.910;2023-05-22T10:27:38;49639.28;;;-146.94;81.08
56737;BME280;42618;51.226;4.910;2023-05-22T10:35:57;49621.34;;;-146.94;76.52
56737;BME280;42618;51.226;4.910;2023-05-22T10:38:49;49653.25;;;-146.94;77.54
56737;BME280;42618;51.226;4.910;2023-05-22T10:41:19;49585.47;;;-146.94;74.38
56737;BME280;42618;51.226;4.910;2023-05-22T10:43:50;49595.44;;;-146.94;72.65
56737;BME280;42618;51.226;4.910;2023-05-22T10:46:17;49627.31;;;-146.94;74.68
56737;BME280;42618;51.226;4.910;2023-05-22T10:48:50;49637.28;;;-146.94;74.07
56737;BME280;42618;51.226;4.910;2023-05-22T10:51:19;49631.31;;;-146.94;75.30
56737;BME280;42618;51.226;4.910;2023-05-22T10:53:51;49615.38;;;-146.94;75.91
56737;BME280;42618;51.226;4.910;2023-05-22T10:56:18;49611.38;;;-146.94;74.47
56737;BME280;42618;51.226;4.910;2023-05-22T10:58:55;49591.44;;;-146.94;72.14
56737;BME280;42618;51.226;4.910;2023-05-22T11:01:24;49611.38;;;-146.94;70.07
56737;BME280;42618;51.226;4.910;2023-05-22T11:04:08;49615.38;;;-146.94;71.46
56737;BME280;42618;51.226;4.910;2023-05-22T11:06:46;49587.47;;;-146.94;70.91
56737;BME280;42618;51.226;4.910;2023-05-22T11:15:06;49583.47;;;-146.94;68.31
56737;BME280;42618;51.226;4.910;2023-05-22T11:20:35;49621.34;;;-146.94;69.49
56737;BME280;42618;51.226;4.910;2023-05-22T11:23:04;49635.31;;;-146.94;70.15
56737;BME280;42618;51.226;4.910;2023-05-22T11:25:33;49603.41;;;-146.94;70.61
56737;BME280;42618;51.226;4.910;2023-05-22T11:28:03;49599.41;;;-146.94;69.18
56737;BME280;42618;51.226;4.910;2023-05-22T11:30:31;49597.44;;;-146.94;65.76
56737;BME280;42618;51.226;4.910;2023-05-22T11:33:00;49587.47;;;-146.94;66.52
56737;BME280;42618;51.226;4.910;2023-05-22T11:35:28;49583.47;;;-146.94;66.57
56737;BME280;42618;51.226;4.910;2023-05-22T11:37:55;49609.38;;;-146.94;66.97
56737;BME280;42618;51.226;4.910;2023-05-22T11:40:27;49609.38;;;-146.94;67.41
56737;BME280;42618;51.226;4.910;2023-05-22T11:42:55;49595.44;;;-146.94;64.81
56737;BME280;42618;51.226;4.910;2023-05-22T11:45:23;49599.41;;;-146.94;64.92
56737;BME280;42618;51.226;4.910;2023-05-22T11:47:49;49583.47;;;-146.94;63.50
56737;BME280;42618;51.226;4.910;2023-05-22T11:50:17;49583.47;;;-146.94;65.07
56737;BME280;42618;51.226;4.910;2023-05-22T11:53:03;49595.44;;;-146.94;66.69
56737;BME280;42618;51.226;4.910;2023-05-22T11:55:32;49569.50;;;-146.94;63.98
56737;BME280;42618;51.226;4.910;2023-05-22T11:57:59;49597.44;;;-146.94;64.82
56737;BME280;42618;51.226;4.910;2023-05-22T12:00:27;49597.44;;;-146.94;66.51
56737;BME280;42618;51.226;4.910;2023-05-22T12:02:54;49583.47;;;-146.94;64.83
56737;BME280;42618;51.226;4.910;2023-05-22T12:05:21;49599.41;;;-146.94;63.32
56737;BME280;42618;51.226;4.910;2023-05-22T12:07:48;49647.25;;;-146.94;64.02
56737;BME280;42618;51.226;4.910;2023-05-22T12:10:15;49581.47;;;-146.94;64.25
56737;BME280;42618;51.226;4.910;2023-05-22T12:12:42;49605.41;;;-146.94;64.19
56737;BME280;42618;51.226;4.910;2023-05-22T12:15:09;49567.53;;;-146.94;64.33
56737;BME280;42618;51.226;4.910;2023-05-22T12:17:36;49591.44;;;-146.94;61.52
56737;BME280;42618;51.226;4.910;2023-05-22T12:20:05;49551.56;;;-146.94;61.13
56737;BME280;42618;51.226;4.910;2023-05-22T12:22:32;49581.47;;;-146.94;61.62
56737;BME280;42618;51.226;4.910;2023-05-22T12:24:59;49591.44;;;-146.94;61.76
56737;BME280;42618;51.226;4.910;2023-05-22T12:27:28;49587.47;;;-146.94;61.36
56737;BME280;42618;51.226;4.910;2023-05-22T12:30:07;49599.41;;;-146.94;63.69
56737;BME280;42618;51.226;4.910;2023-05-22T12:32:35;49551.56;;;-146.94;59.30
56737;BME280;42618;51.226;4.910;2023-05-22T12:35:02;49539.63;;;-146.94;58.96
56737;BME280;42618;51.226;4.910;2023-05-22T12:37:29;49583.47;;;-146.94;61.21
56737;BME280;42618;51.226;4.910;2023-05-22T12:39:59;49549.59;;;-146.94;60.84
56737;BME280;42618;51.226;4.910;2023-05-22T12:42:27;49555.56;;;-146.94;58.75
56737;BME280;42618;51.226;4.910;2023-05-22T12:44:56;49591.44;;;-146.94;59.05
56737;BME280;42618;51.226;4.910;2023-05-22T12:47:23;49543.59;;;-146.94;56.88
56737;BME280;42618;51.226;4.910;2023-05-22T12:49:51;49591.44;;;-146.94;59.33
56737;BME280;42618;51.226;4.910;2023-05-22T12:52:18;49543.59;;;-146.94;54.80
56737;BME280;42618;51.226;4.910;2023-05-22T12:54:44;49583.47;;;-146.94;55.13
56737;BME280;42618;51.226;4.910;2023-05-22T12:57:11;49543.59;;;-146.94;55.10
56737;BME280;42618;51.226;4.910;2023-05-22T12:59:38;49559.56;;;-146.94;53.86
56737;BME280;42618;51.226;4.910;2023-05-22T13:02:05;49539.63;;;-146.94;52.56
56737;BME280;42618;51.226;4.910;2023-05-22T13:04:32;49547.59;;;-146.94;53.84
56737;BME280;42618;51.226;4.910;2023-05-22T13:06:59;49555.56;;;-146.94;53.64
56737;BME280;42618;51.226;4.910;2023-05-22T13:09:26;49539.63;;;-146.94;53.73
56737;BME280;42618;51.226;4.910;2023-05-22T13:11:53;49503.72;;;-146.94;53.75
56737;BME280;42618;51.226;4.910;2023-05-22T13:14:20;49529.66;;;-146.94;54.19
56737;BME280;42618;51.226;4.910;2023-05-22T13:16:47;49597.44;;;-146.94;54.53